logo tempoitalia

Diretta Meteo Tinker, Stati Uniti (USA)lunedì 31 agosto ore 00:55

Mappa
Sereno 29 °C Sereno 24 Ore: T.min 25 T.max 40
Ponente Sud Km/h 14.8 Punto di rugiada: 15 °C Umidità: 42% Visibilità: 10 Km
Il sole sorge alle: 07:01 Il sole tramonta alle: 19:58
31 Agosto 2026 00:55 tempo osservato: Sereno Sereno 29 42 1014 vento: Nord S 14.8
30 Agosto 2026 23:55 tempo osservato: Sereno Sereno 30 40 1014 vento: Nord S 14.8
30 Agosto 2026 22:55 tempo osservato: Sereno Sereno 31 37 1014 vento: Nord S 16.7
30 Agosto 2026 21:55 tempo osservato: Sereno Sereno 32 38 1013 vento: Nord S 14.8
30 Agosto 2026 20:55 tempo osservato: Sereno Sereno 33 33 1012 vento: Nord S 18.5
30 Agosto 2026 19:55 tempo osservato: Sereno Sereno 35 30 1011 vento: Nord S 18.5
30 Agosto 2026 18:55 tempo osservato: Sereno Sereno 37 25 1011 vento: Nord S 18.5
30 Agosto 2026 17:55 tempo osservato: Sereno Sereno 39 20 1011 vento: Nord S/SO 22.2
30 Agosto 2026 16:55 tempo osservato: Sereno Sereno 39 21 1012 vento: Nord S/SO 25.9
30 Agosto 2026 16:30 tempo osservato: Sereno Sereno 40 19 1012 vento: Nord SO 29.6
30 Agosto 2026 15:55 tempo osservato: Poco Nuvoloso Poco Nuvoloso 39 21 1012 vento: Nord S/SO 18.5
30 Agosto 2026 15:48 tempo osservato: Nuvoloso Nuvoloso 39 21 1012 vento: Nord SO 22.2
30 Agosto 2026 14:55 tempo osservato: Poco Nuvoloso Poco Nuvoloso 39 20 1013 vento: Nord SO 22.2
30 Agosto 2026 14:15 tempo osservato: Sereno Sereno 39 21 1013 vento: Nord SO 22.2
30 Agosto 2026 13:55 tempo osservato: Sereno Sereno 38 22 1014 vento: Nord S 22.2
30 Agosto 2026 13:34 tempo osservato: Sereno Sereno 38 22 1014 vento: Nord S 22.2
30 Agosto 2026 12:55 tempo osservato: Sereno Sereno 38 24 1014 vento: Nord O/SO 24
30 Agosto 2026 11:55 tempo osservato: Sereno Sereno 37 27 1015 vento: Nord O/SO 27.8
30 Agosto 2026 10:55 tempo osservato: Poco Nuvoloso Poco Nuvoloso 35 34 1015 vento: Nord S/SO 31.5
30 Agosto 2026 09:55 tempo osservato: Sereno Sereno 32 40 1016 vento: Nord S/SO 24
30 Agosto 2026 08:55 tempo osservato: Sereno Sereno 29 48 1016 vento: Nord S 20.3
30 Agosto 2026 07:55 tempo osservato: Sereno Sereno 26 54 1015 vento: Nord S 24
30 Agosto 2026 06:55 tempo osservato: Sereno Sereno 25 57 1015 vento: Nord S 18.5
30 Agosto 2026 05:55 tempo osservato: Sereno Sereno 26 54 1015 vento: Nord S 13
30 Agosto 2026 04:55 tempo osservato: Sereno Sereno 27 50 1015 vento: Nord S 16.7
30 Agosto 2026 03:55 tempo osservato: Sereno Sereno 27 50 1014 vento: Nord S 20.3
30 Agosto 2026 02:55 tempo osservato: Sereno Sereno 28 48 1014 vento: Nord S 20.3
30 Agosto 2026 01:55 tempo osservato: Sereno Sereno 29 45 1014 vento: Nord S 20.3